createdAt,value
2017-04-21T00:00:48.181Z,12.90
2017-04-21T00:01:48.715Z,13.62
2017-04-21T00:02:49.840Z,13.77
2017-04-21T00:03:49.806Z,13.83
2017-04-21T00:04:49.843Z,12.72
2017-04-21T00:05:49.642Z,13.77
2017-04-21T00:06:49.641Z,13.38
2017-04-21T00:07:49.967Z,13.87
2017-04-21T00:08:50.008Z,14.20
2017-04-21T00:09:49.793Z,13.35
2017-04-21T00:10:50.479Z,13.02
2017-04-21T00:11:50.803Z,13.40
2017-04-21T00:12:51.051Z,13.12
2017-04-21T00:13:51.104Z,14.38
2017-04-21T00:14:51.074Z,12.90
2017-04-21T00:15:51.170Z,14.22
2017-04-21T00:16:51.236Z,14.15
2017-04-21T00:17:51.389Z,13.40
2017-04-21T00:18:51.517Z,13.80
2017-04-21T00:19:51.513Z,13.53
2017-04-21T00:20:51.559Z,13.08
2017-04-21T00:21:51.557Z,13.27
2017-04-21T00:22:51.831Z,13.83
2017-04-21T00:23:51.918Z,13.52
2017-04-21T00:24:52.664Z,14.30
2017-04-21T00:25:52.623Z,14.50
2017-04-21T00:26:52.663Z,14.62
2017-04-21T00:27:53.066Z,13.68
2017-04-21T00:28:53.778Z,13.58
2017-04-21T00:29:53.829Z,14.25
2017-04-21T00:30:53.708Z,14.45
2017-04-21T00:31:53.453Z,14.20
2017-04-21T00:32:53.909Z,13.60
2017-04-21T00:33:53.909Z,15.77
2017-04-21T00:34:53.894Z,27.02
2017-04-21T00:35:53.902Z,24.22
2017-04-21T00:36:53.893Z,18.18
2017-04-21T00:37:54.033Z,14.87
2017-04-21T00:38:54.000Z,15.18
2017-04-21T00:39:54.824Z,13.02
2017-04-21T00:40:54.864Z,14.80
2017-04-21T00:41:54.832Z,14.75
2017-04-21T00:42:55.125Z,14.12
2017-04-21T00:43:55.083Z,14.80
2017-04-21T00:44:55.048Z,14.02
2017-04-21T00:45:55.021Z,13.05
2017-04-21T00:46:55.765Z,12.80
2017-04-21T00:47:56.069Z,13.67
2017-04-21T00:48:56.014Z,12.62
2017-04-21T00:49:56.739Z,13.62
2017-04-21T00:50:56.620Z,14.05
2017-04-21T00:51:56.694Z,14.07
2017-04-21T00:52:57.836Z,14.98
2017-04-21T00:53:58.542Z,13.55
2017-04-21T00:54:58.541Z,14.32
2017-04-21T00:55:58.503Z,13.78
2017-04-21T00:56:58.481Z,13.67
2017-04-21T00:57:58.541Z,14.12
2017-04-21T00:58:58.627Z,14.15
2017-04-21T00:59:58.617Z,13.32
2017-04-21T01:00:58.607Z,14.23
2017-04-21T01:01:58.617Z,13.32
2017-04-21T01:02:58.909Z,12.85
2017-04-21T01:03:59.028Z,14.35
2017-04-21T01:04:59.003Z,12.68
2017-04-21T01:05:59.039Z,14.40
2017-04-21T01:06:59.122Z,13.88
2017-04-21T01:07:59.437Z,13.13
2017-04-21T01:08:59.193Z,14.32
2017-04-21T01:09:58.977Z,15.25
2017-04-21T01:10:58.976Z,13.53
2017-04-21T01:11:59.025Z,14.03
2017-04-21T01:12:59.452Z,14.35
2017-04-21T01:13:59.495Z,13.00
2017-04-21T01:14:59.573Z,14.10
2017-04-21T01:15:59.629Z,13.58
2017-04-21T01:16:59.597Z,13.08
2017-04-21T01:17:59.923Z,13.77
2017-04-21T01:18:59.890Z,13.73
2017-04-21T01:19:59.894Z,14.80
2017-04-21T01:20:59.984Z,14.35
2017-04-21T01:22:00.034Z,14.30
2017-04-21T01:23:00.420Z,14.57
2017-04-21T01:24:00.380Z,13.20
2017-04-21T01:25:00.393Z,13.98
2017-04-21T01:26:00.389Z,14.63
2017-04-21T01:27:00.361Z,14.10
2017-04-21T01:28:00.688Z,15.40
2017-04-21T01:29:00.738Z,15.58
2017-04-21T01:30:00.771Z,14.15
2017-04-21T01:31:01.522Z,14.45
2017-04-21T01:32:01.347Z,14.10
2017-04-21T01:33:01.758Z,12.80
2017-04-21T01:34:02.515Z,13.63
2017-04-21T01:35:02.488Z,14.22
2017-04-21T01:36:03.114Z,13.75
2017-04-21T01:37:03.135Z,14.10
2017-04-21T01:38:03.420Z,13.75
2017-04-21T01:39:04.273Z,13.83
2017-04-21T01:40:04.334Z,13.45
2017-04-21T01:41:04.439Z,14.48
2017-04-21T01:42:04.173Z,13.82
2017-04-21T01:43:04.586Z,14.30
2017-04-21T01:44:05.093Z,13.62
2017-04-21T01:45:05.066Z,13.62
2017-04-21T01:46:05.064Z,13.48
2017-04-21T01:47:05.816Z,13.88
2017-04-21T01:48:06.173Z,14.35
2017-04-21T01:49:06.159Z,14.07
2017-04-21T01:50:06.065Z,12.83
2017-04-21T01:51:06.187Z,15.35
2017-04-21T01:52:06.122Z,13.88
2017-04-21T01:53:06.467Z,13.87
2017-04-21T01:54:06.475Z,14.50
2017-04-21T01:55:06.463Z,13.42
2017-04-21T01:56:06.471Z,13.45
2017-04-21T01:57:06.473Z,14.43
2017-04-21T01:58:06.814Z,13.78
2017-04-21T01:59:06.796Z,14.03
2017-04-21T02:00:06.564Z,13.08
2017-04-21T02:01:06.548Z,13.43
2017-04-21T02:02:06.584Z,14.35
2017-04-21T02:03:07.029Z,13.87
2017-04-21T02:04:07.010Z,14.07
2017-04-21T02:05:07.028Z,13.58
2017-04-21T02:06:07.093Z,15.52
2017-04-21T02:07:07.061Z,14.48
2017-04-21T02:08:08.185Z,13.63
2017-04-21T02:09:08.185Z,14.43
2017-04-21T02:10:08.232Z,13.52
2017-04-21T02:11:08.982Z,14.32
2017-04-21T02:12:09.005Z,14.62
2017-04-21T02:13:09.112Z,13.92
2017-04-21T02:14:09.902Z,14.75
2017-04-21T02:15:10.044Z,13.62
2017-04-21T02:16:09.993Z,13.75
2017-04-21T02:17:09.809Z,14.08
2017-04-21T02:18:09.919Z,14.33
2017-04-21T02:19:09.925Z,14.30
2017-04-21T02:20:10.056Z,14.90
2017-04-21T02:21:10.055Z,12.37
2017-04-21T02:22:10.124Z,14.05
2017-04-21T02:23:11.641Z,14.60
2017-04-21T02:24:11.751Z,12.83
2017-04-21T02:25:11.787Z,14.03
2017-04-21T02:26:11.775Z,13.38
2017-04-21T02:27:11.773Z,14.28
2017-04-21T02:28:12.007Z,12.57
2017-04-21T02:29:12.078Z,14.32
2017-04-21T02:30:12.094Z,15.45
2017-04-21T02:31:12.120Z,15.85
2017-04-21T02:32:12.108Z,15.50
2017-04-21T02:33:12.535Z,14.77
2017-04-21T02:34:12.534Z,15.77
2017-04-21T02:35:12.583Z,16.97
2017-04-21T02:36:12.622Z,16.37
2017-04-21T02:37:12.575Z,16.58
2017-04-21T02:38:12.987Z,15.60
2017-04-21T02:39:13.005Z,16.72
2017-04-21T02:40:13.713Z,15.25
2017-04-21T02:41:13.796Z,15.48
2017-04-21T02:42:13.805Z,15.18
2017-04-21T02:43:14.158Z,15.10
2017-04-21T02:44:14.095Z,15.80
2017-04-21T02:45:14.046Z,15.90
2017-04-21T02:46:14.017Z,16.72
2017-04-21T02:47:13.779Z,16.38
2017-04-21T02:48:14.623Z,15.95
2017-04-21T02:49:20.866Z,16.88
2017-04-21T02:50:20.837Z,16.72
2017-04-21T02:51:20.873Z,15.45
2017-04-21T02:52:20.854Z,16.68
2017-04-21T02:53:21.275Z,15.72
2017-04-21T02:54:21.249Z,16.92
2017-04-21T02:55:21.228Z,15.37
2017-04-21T02:56:21.213Z,16.60
2017-04-21T02:57:21.236Z,16.28
2017-04-21T02:58:21.632Z,16.30
2017-04-21T02:59:21.630Z,16.00
2017-04-21T03:00:21.702Z,15.15
2017-04-21T03:01:21.674Z,17.53
2017-04-21T03:02:21.632Z,15.52
2017-04-21T03:03:22.049Z,16.17
2017-04-21T03:04:22.079Z,16.35
2017-04-21T03:05:22.085Z,16.20
2017-04-21T03:06:22.122Z,17.22
2017-04-21T03:07:22.109Z,15.32
2017-04-21T03:08:22.508Z,17.45
2017-04-21T03:09:23.225Z,16.42
2017-04-21T03:10:24.003Z,16.33
2017-04-21T03:11:23.990Z,15.37
2017-04-21T03:12:23.961Z,16.45
2017-04-21T03:13:25.084Z,15.30
2017-04-21T03:14:25.072Z,16.35
2017-04-21T03:15:25.093Z,15.60
2017-04-21T03:16:25.139Z,17.65
2017-04-21T03:17:25.087Z,15.78
2017-04-21T03:18:25.441Z,16.90
2017-04-21T03:19:25.396Z,15.65
2017-04-21T03:20:25.405Z,16.38
2017-04-21T03:21:25.362Z,16.95
2017-04-21T03:22:25.351Z,16.27
2017-04-21T03:23:27.452Z,17.00
2017-04-21T03:24:27.427Z,16.02
2017-04-21T03:25:27.424Z,15.88
2017-04-21T03:26:27.399Z,15.58
2017-04-21T03:27:27.369Z,15.42
2017-04-21T03:28:27.744Z,16.95
2017-04-21T03:29:28.467Z,17.95
2017-04-21T03:30:29.175Z,18.10
2017-04-21T03:31:29.159Z,17.98
2017-04-21T03:32:29.166Z,19.43
2017-04-21T03:33:29.497Z,24.40
2017-04-21T03:34:29.479Z,24.63
2017-04-21T03:35:29.408Z,18.45
2017-04-21T03:36:29.420Z,18.22
2017-04-21T03:37:29.341Z,17.60
2017-04-21T03:38:30.399Z,16.35
2017-04-21T03:39:30.358Z,17.07
2017-04-21T03:42:00.816Z,13.27
2017-04-21T03:43:00.798Z,13.28
2017-04-21T03:44:03.664Z,14.12
2017-04-21T03:45:03.733Z,14.35
2017-04-21T03:46:03.770Z,15.05
2017-04-21T03:47:05.742Z,13.22
2017-04-21T03:48:06.586Z,12.90
2017-04-21T03:49:06.665Z,14.50
2017-04-21T03:50:06.654Z,14.17
2017-04-21T03:51:06.673Z,14.08
2017-04-21T03:52:06.617Z,14.05
2017-04-21T03:53:06.546Z,13.92
2017-04-21T03:54:06.860Z,13.33
2017-04-21T03:55:06.794Z,12.60
2017-04-21T03:56:06.743Z,12.45
2017-04-21T03:57:06.689Z,12.82
2017-04-21T03:58:06.733Z,13.22
2017-04-21T03:59:07.826Z,13.53
2017-04-21T04:00:07.838Z,13.75
2017-04-21T04:01:07.815Z,12.72
2017-04-21T04:02:07.757Z,11.98
2017-04-21T04:03:07.712Z,13.95
2017-04-21T04:04:08.086Z,13.35
2017-04-21T04:05:08.037Z,13.07
2017-04-21T04:06:08.093Z,13.52
2017-04-21T04:07:08.088Z,12.73
2017-04-21T04:08:07.923Z,14.20
2017-04-21T04:09:09.715Z,14.12
2017-04-21T04:10:09.808Z,14.33
2017-04-21T04:11:09.792Z,14.32
2017-04-21T04:12:09.591Z,13.85
2017-04-21T04:13:09.526Z,14.13
2017-04-21T04:14:09.906Z,14.57
2017-04-21T04:15:09.860Z,15.22
2017-04-21T04:16:09.786Z,14.55
2017-04-21T04:17:09.752Z,14.12
2017-04-21T04:18:09.827Z,13.65
2017-04-21T04:19:10.968Z,15.32
2017-04-21T04:20:10.906Z,15.02
2017-04-21T04:21:10.822Z,15.43
2017-04-21T04:22:10.816Z,14.78
2017-04-21T04:23:10.761Z,15.12
2017-04-21T04:24:11.110Z,15.63
2017-04-21T04:25:11.101Z,13.58
2017-04-21T04:26:11.090Z,15.82
2017-04-21T04:27:10.904Z,15.90
2017-04-21T04:28:11.591Z,15.82
2017-04-21T04:29:11.903Z,13.88
2017-04-21T04:30:11.805Z,15.12
2017-04-21T04:31:11.822Z,14.48
2017-04-21T04:32:11.769Z,16.03
2017-04-21T04:33:11.691Z,15.27
2017-04-21T04:34:12.039Z,15.78
2017-04-21T04:35:12.053Z,15.07
2017-04-21T04:36:12.075Z,14.97
2017-04-21T04:37:12.761Z,16.50
2017-04-21T04:38:13.034Z,14.47
2017-04-21T04:39:13.406Z,15.07
2017-04-21T04:40:13.412Z,15.85
2017-04-21T04:41:13.351Z,16.45
2017-04-21T04:42:13.307Z,15.27
2017-04-21T04:43:13.326Z,15.12
2017-04-21T04:44:13.733Z,15.57
2017-04-21T04:45:13.727Z,16.02
2017-04-21T04:46:13.805Z,16.35
2017-04-21T04:47:13.626Z,15.20
2017-04-21T04:48:13.491Z,17.27
2017-04-21T04:49:14.624Z,15.38
2017-04-21T04:50:15.346Z,16.50
2017-04-21T04:51:15.325Z,15.72
2017-04-21T04:52:15.315Z,16.22
2017-04-21T04:53:15.318Z,14.50
2017-04-21T04:54:15.367Z,17.10
2017-04-21T04:55:15.371Z,16.53
2017-04-21T04:56:16.066Z,15.00
2017-04-21T04:57:16.060Z,16.10
2017-04-21T04:58:16.785Z,15.38
2017-04-21T04:59:17.126Z,15.87
2017-04-21T05:00:17.908Z,15.02
2017-04-21T05:01:17.902Z,15.85
2017-04-21T05:02:17.828Z,15.53
2017-04-21T05:03:17.860Z,15.15
2017-04-21T05:04:18.172Z,15.60
2017-04-21T05:05:18.211Z,14.87
2017-04-21T05:06:18.271Z,16.37
2017-04-21T05:07:18.247Z,14.58
2017-04-21T05:08:18.224Z,16.38
2017-04-21T05:09:18.609Z,16.67
2017-04-21T05:10:18.642Z,16.68
2017-04-21T05:11:19.421Z,15.28
2017-04-21T05:12:19.377Z,17.18
2017-04-21T05:13:19.439Z,16.95
2017-04-21T05:14:19.772Z,14.57
2017-04-21T05:15:19.735Z,16.03
2017-04-21T05:16:19.726Z,15.98
2017-04-21T05:17:19.647Z,15.38
2017-04-21T05:18:19.619Z,16.45
2017-04-21T05:22:30.657Z,15.93
2017-04-21T05:23:30.696Z,14.12
2017-04-21T05:24:31.396Z,15.30
2017-04-21T05:25:31.359Z,16.48
2017-04-21T05:26:31.152Z,16.98
2017-04-21T05:27:31.527Z,16.50
2017-04-21T05:28:31.482Z,16.92
2017-04-21T05:29:31.620Z,16.57
2017-04-21T05:30:31.624Z,14.68
2017-04-21T05:32:55.816Z,14.08
2017-04-21T05:33:55.870Z,15.55
2017-04-21T05:34:55.994Z,16.75
2017-04-21T05:35:55.926Z,15.68
2017-04-21T05:36:55.927Z,14.92
2017-04-21T05:37:56.207Z,15.05
2017-04-21T05:38:56.164Z,13.28
2017-04-21T05:39:56.342Z,12.45
2017-04-21T05:40:56.341Z,13.48
2017-04-21T05:41:56.295Z,14.23
2017-04-21T05:42:57.133Z,14.55
2017-04-21T05:43:57.136Z,14.20
2017-04-21T05:44:57.839Z,13.70
2017-04-21T05:45:57.800Z,14.62
2017-04-21T05:46:57.759Z,13.53
2017-04-21T05:47:58.591Z,14.55
2017-04-21T05:48:59.296Z,13.57
2017-04-21T05:49:59.223Z,13.27
2017-04-21T05:50:59.887Z,13.23
2017-04-21T05:51:59.830Z,13.12
2017-04-21T05:52:59.950Z,14.22
2017-04-21T05:54:00.007Z,15.35
2017-04-21T05:55:01.480Z,14.15
2017-04-21T05:56:01.207Z,12.53
2017-04-21T05:57:01.179Z,12.07
2017-04-21T05:58:01.509Z,12.92
2017-04-21T05:59:01.324Z,11.68
2017-04-21T06:00:02.030Z,12.85
2017-04-21T06:01:01.763Z,12.35
2017-04-21T06:02:01.582Z,12.03
2017-04-21T06:03:01.842Z,11.97
2017-04-21T06:04:01.788Z,12.27
2017-04-21T06:05:01.736Z,14.58
2017-04-21T06:06:01.769Z,12.83
2017-04-21T06:07:02.594Z,12.62
2017-04-21T06:08:02.914Z,12.32
2017-04-21T06:09:03.036Z,12.82
2017-04-21T06:10:03.030Z,11.75
2017-04-21T06:11:03.757Z,11.67
2017-04-21T06:12:03.716Z,13.70
2017-04-21T06:13:04.153Z,12.60
2017-04-21T06:14:04.201Z,11.75
2017-04-21T06:15:04.215Z,12.93
2017-04-21T06:16:04.092Z,12.45
2017-04-21T06:17:04.232Z,11.77
2017-04-21T06:18:04.600Z,12.98
2017-04-21T06:19:04.593Z,12.25
2017-04-21T06:20:04.583Z,12.78
2017-04-21T06:21:04.669Z,12.20
2017-04-21T06:22:04.637Z,13.70
2017-04-21T06:23:05.741Z,12.17
2017-04-21T06:24:05.694Z,12.92
2017-04-21T06:25:05.726Z,12.68
2017-04-21T06:26:05.563Z,12.42
2017-04-21T06:27:05.568Z,11.60
2017-04-21T06:28:05.912Z,12.47
2017-04-21T06:29:05.930Z,11.58
2017-04-21T06:30:05.918Z,12.95
2017-04-21T06:31:05.978Z,12.73
2017-04-21T06:32:06.053Z,11.93
2017-04-21T06:33:06.404Z,11.80
2017-04-21T06:34:06.412Z,11.83
2017-04-21T06:35:06.267Z,10.45
2017-04-21T06:36:06.293Z,11.83
2017-04-21T06:37:06.277Z,10.77
2017-04-21T06:38:06.617Z,11.52
2017-04-21T06:39:06.563Z,12.25
2017-04-21T06:40:06.539Z,12.95
2017-04-21T06:41:06.391Z,12.65
2017-04-21T06:42:06.502Z,11.95
2017-04-21T06:43:07.609Z,11.90
2017-04-21T06:44:07.615Z,11.00
2017-04-21T06:45:07.671Z,10.80
2017-04-21T06:46:07.631Z,10.82
2017-04-21T06:47:07.611Z,12.22
2017-04-21T06:48:07.616Z,12.02
2017-04-21T06:49:08.373Z,12.55
2017-04-21T06:50:09.051Z,12.18
2017-04-21T06:51:09.028Z,12.50
2017-04-21T06:52:09.009Z,11.03
2017-04-21T06:53:10.142Z,11.73
2017-04-21T06:54:10.848Z,11.15
2017-04-21T06:55:11.085Z,10.08
2017-04-21T06:56:11.858Z,9.93
2017-04-21T06:57:11.856Z,9.72
2017-04-21T06:58:12.153Z,11.42
2017-04-21T06:59:12.147Z,11.48
2017-04-21T07:00:12.154Z,11.03
2017-04-21T07:01:12.176Z,11.33
2017-04-21T07:02:12.146Z,10.08
2017-04-21T07:03:12.549Z,10.80
2017-04-21T07:04:12.589Z,11.43
2017-04-21T07:05:12.582Z,10.45
2017-04-21T07:06:12.653Z,12.05
2017-04-21T07:07:12.794Z,9.75
2017-04-21T07:08:13.894Z,9.90
2017-04-21T07:09:13.866Z,10.72
2017-04-21T07:10:13.852Z,9.65
2017-04-21T07:11:13.596Z,9.38
2017-04-21T07:12:13.600Z,9.75
2017-04-21T07:13:14.336Z,10.02
2017-04-21T07:14:15.064Z,10.15
2017-04-21T07:15:18.050Z,9.42
2017-04-21T07:16:17.982Z,9.33
2017-04-21T07:17:18.026Z,10.82
2017-04-21T07:18:18.306Z,10.20
2017-04-21T07:19:18.342Z,9.43
2017-04-21T07:20:18.264Z,10.88
2017-04-21T07:21:18.230Z,9.43
2017-04-21T07:22:18.164Z,10.08
2017-04-21T07:23:18.498Z,10.10
2017-04-21T07:24:18.477Z,10.12
2017-04-21T07:25:18.458Z,9.77
2017-04-21T07:26:18.446Z,10.00
2017-04-21T07:27:18.483Z,9.38
2017-04-21T07:28:18.852Z,8.68
2017-04-21T07:29:19.594Z,9.33
2017-04-21T07:30:20.589Z,8.65
2017-04-21T07:31:20.557Z,9.57
2017-04-21T07:32:20.517Z,10.10
2017-04-21T07:33:20.803Z,10.05
2017-04-21T07:34:20.770Z,9.85
2017-04-21T07:35:20.714Z,9.62
2017-04-21T07:36:20.787Z,10.12
2017-04-21T07:37:20.835Z,8.98
2017-04-21T07:38:21.241Z,9.53
2017-04-21T07:39:21.169Z,10.48
2017-04-21T07:40:21.193Z,10.20
2017-04-21T07:41:21.807Z,10.33
2017-04-21T07:42:21.838Z,10.33
2017-04-21T07:43:22.117Z,10.03
2017-04-21T07:44:22.904Z,9.97
2017-04-21T07:45:22.856Z,9.47
2017-04-21T07:46:22.892Z,10.03
2017-04-21T07:47:22.854Z,9.70
2017-04-21T07:48:23.196Z,10.32
2017-04-21T07:49:23.223Z,10.75
2017-04-21T07:50:23.174Z,10.10
2017-04-21T07:51:23.181Z,11.18
2017-04-21T07:52:23.295Z,10.50
2017-04-21T07:53:23.534Z,10.07
2017-04-21T07:54:23.524Z,10.32
2017-04-21T07:55:23.571Z,10.17
2017-04-21T07:56:23.644Z,10.80
2017-04-21T07:57:23.595Z,9.10
2017-04-21T07:58:23.918Z,9.85
2017-04-21T07:59:23.877Z,9.65
2017-04-21T08:00:23.956Z,10.87
2017-04-21T08:01:23.942Z,10.02
2017-04-21T08:02:23.941Z,9.83
2017-04-21T08:03:24.248Z,9.65
2017-04-21T08:04:24.253Z,9.60
2017-04-21T08:05:24.261Z,11.78
2017-04-21T08:06:24.309Z,11.08
2017-04-21T08:07:24.320Z,10.63
2017-04-21T08:08:24.693Z,11.85
2017-04-21T08:09:24.686Z,11.55
2017-04-21T08:10:24.543Z,10.78
2017-04-21T08:11:25.318Z,11.48
2017-04-21T08:12:25.337Z,10.35
2017-04-21T08:13:25.677Z,12.17
2017-04-21T08:14:25.685Z,11.20
2017-04-21T08:15:25.759Z,10.25
2017-04-21T08:16:25.757Z,10.25
2017-04-21T08:17:25.777Z,10.95
2017-04-21T08:18:26.112Z,9.73
2017-04-21T08:19:26.831Z,10.38
2017-04-21T08:20:26.808Z,11.63
2017-04-21T08:21:26.818Z,10.73
2017-04-21T08:22:26.994Z,11.38
2017-04-21T08:23:27.380Z,10.12
2017-04-21T08:24:27.490Z,10.48
2017-04-21T08:25:28.166Z,10.68
2017-04-21T08:26:28.914Z,10.67
2017-04-21T08:27:28.840Z,10.40
2017-04-21T08:28:29.867Z,10.07
2017-04-21T08:29:29.892Z,9.98
2017-04-21T08:30:29.839Z,9.97
2017-04-21T08:31:29.830Z,11.32
2017-04-21T08:32:29.808Z,10.62
2017-04-21T08:33:30.175Z,10.95
2017-04-21T08:34:30.012Z,11.15
2017-04-21T08:35:30.028Z,10.97
2017-04-21T08:36:29.958Z,10.30
2017-04-21T08:37:29.927Z,10.87
2017-04-21T08:38:31.023Z,10.23
2017-04-21T08:39:31.007Z,10.38
2017-04-21T08:40:30.998Z,10.70
2017-04-21T08:41:30.754Z,11.67
2017-04-21T08:42:30.841Z,11.22
2017-04-21T08:43:31.262Z,11.32
2017-04-21T08:44:31.842Z,10.88
2017-04-21T08:45:31.583Z,10.10
2017-04-21T08:46:31.600Z,11.02
2017-04-21T08:47:31.566Z,10.28
2017-04-21T08:48:32.053Z,11.35
2017-04-21T08:49:32.005Z,11.13
2017-04-21T08:50:32.029Z,10.85
2017-04-21T08:51:32.001Z,11.28
2017-04-21T08:52:31.974Z,10.60
2017-04-21T08:53:32.466Z,10.00
2017-04-21T08:54:32.487Z,11.25
2017-04-21T08:55:32.474Z,10.63
2017-04-21T08:56:33.218Z,11.03
2017-04-21T08:57:34.152Z,11.95
2017-04-21T08:58:34.424Z,10.82
2017-04-21T08:59:34.428Z,10.78
2017-04-21T09:00:34.505Z,11.88
2017-04-21T09:01:34.533Z,10.90
2017-04-21T09:02:35.236Z,10.98
2017-04-21T09:03:35.531Z,11.70
2017-04-21T09:04:35.610Z,11.25
2017-04-21T09:05:36.363Z,11.05
2017-04-21T09:06:36.328Z,11.10
2017-04-21T09:07:36.376Z,10.78
2017-04-21T09:08:36.739Z,11.33
2017-04-21T09:09:36.686Z,10.90
2017-04-21T09:10:36.635Z,12.62
2017-04-21T09:11:37.348Z,11.42
2017-04-21T09:12:37.558Z,11.68
2017-04-21T09:13:37.839Z,11.07
2017-04-21T09:14:37.914Z,11.50
2017-04-21T09:15:37.881Z,10.53
2017-04-21T09:16:37.988Z,11.40
2017-04-21T09:17:37.965Z,12.62
2017-04-21T09:18:38.326Z,10.87
2017-04-21T09:19:38.409Z,10.65
2017-04-21T09:20:38.359Z,11.20
2017-04-21T09:21:38.376Z,12.02
2017-04-21T09:22:39.070Z,10.65
2017-04-21T09:23:39.289Z,10.93
2017-04-21T09:24:39.283Z,12.65
2017-04-21T09:25:39.345Z,11.87
2017-04-21T09:26:39.266Z,12.47
2017-04-21T09:27:39.332Z,11.05
2017-04-21T09:28:40.509Z,11.80
2017-04-21T09:29:41.272Z,10.85
2017-04-21T09:30:41.225Z,10.68
2017-04-21T09:31:41.148Z,11.77
2017-04-21T09:32:41.211Z,11.08
2017-04-21T09:33:41.606Z,11.93
2017-04-21T09:34:41.538Z,11.67
2017-04-21T09:35:41.565Z,10.25
2017-04-21T09:36:41.572Z,11.62
2017-04-21T09:37:41.351Z,11.67
2017-04-21T09:38:42.456Z,11.67
2017-04-21T09:39:42.585Z,12.45
2017-04-21T09:40:43.384Z,12.80
2017-04-21T09:41:43.457Z,11.10
2017-04-21T09:42:51.587Z,11.27
2017-04-21T09:43:51.895Z,12.48
2017-04-21T09:44:51.961Z,11.43
2017-04-21T09:45:51.866Z,11.67
2017-04-21T09:46:51.878Z,12.12
2017-04-21T09:47:51.895Z,11.68
2017-04-21T09:48:52.233Z,12.38
2017-04-21T09:49:52.165Z,11.98
2017-04-21T09:50:52.670Z,12.43
2017-04-21T09:52:44.012Z,11.88
2017-04-21T09:53:34.119Z,12.22
2017-04-21T09:54:52.991Z,13.03
2017-04-21T09:56:47.394Z,12.58
2017-04-21T09:57:04.296Z,12.78
2017-04-21T09:58:30.531Z,11.53
2017-04-21T10:01:52.994Z,12.60
2017-04-21T10:02:28.201Z,13.57
2017-04-21T10:02:39.565Z,11.87
2017-04-21T10:04:00.300Z,12.80
2017-04-21T10:04:11.437Z,12.60
2017-04-21T10:04:54.032Z,13.38
2017-04-21T10:05:10.146Z,12.42
2017-04-21T10:05:54.028Z,11.95
2017-04-21T10:07:00.726Z,11.93
2017-04-21T10:07:39.154Z,12.02
2017-04-21T10:08:11.924Z,11.75
2017-04-21T10:08:54.533Z,12.20
2017-04-21T10:09:54.504Z,11.97
2017-04-21T10:10:55.301Z,12.63
2017-04-21T10:11:55.297Z,11.77
2017-04-21T10:12:55.525Z,11.58
2017-04-21T10:13:55.815Z,11.35
2017-04-21T10:14:55.771Z,12.87
2017-04-21T10:15:55.723Z,11.07
2017-04-21T10:16:55.550Z,12.28
2017-04-21T10:17:55.610Z,10.98
2017-04-21T10:18:56.621Z,12.15
2017-04-21T10:19:56.666Z,12.72
2017-04-21T10:20:59.527Z,12.75
2017-04-21T10:22:00.267Z,12.88
2017-04-21T10:23:00.258Z,11.77
2017-04-21T10:24:01.349Z,12.15
2017-04-21T10:25:01.382Z,13.00
2017-04-21T10:26:01.326Z,13.93
2017-04-21T10:27:01.334Z,11.75
2017-04-21T10:28:01.087Z,12.78
2017-04-21T10:29:01.217Z,13.02
2017-04-21T10:30:01.157Z,12.08
2017-04-21T10:31:01.073Z,12.87
2017-04-21T10:32:02.021Z,11.75
2017-04-21T10:33:02.830Z,12.07
2017-04-21T10:34:03.164Z,13.10
2017-04-21T10:35:03.238Z,12.48
2017-04-21T10:36:03.338Z,12.57
2017-04-21T10:37:03.316Z,12.78
2017-04-21T10:38:04.062Z,12.75
2017-04-21T10:39:04.862Z,13.07
2017-04-21T10:40:04.846Z,13.62
2017-04-21T10:41:04.825Z,11.53
2017-04-21T10:42:04.823Z,13.05
2017-04-21T10:43:04.822Z,12.12
2017-04-21T10:44:05.170Z,11.62
2017-04-21T10:45:05.156Z,11.65
2017-04-21T10:46:05.137Z,11.75
2017-04-21T10:47:05.127Z,11.37
2017-04-21T10:48:05.124Z,13.33
2017-04-21T10:49:05.522Z,11.02
2017-04-21T10:50:06.570Z,12.78
2017-04-21T10:51:06.507Z,11.50
2017-04-21T10:52:06.497Z,12.75
2017-04-21T10:53:06.490Z,11.52
2017-04-21T10:54:06.858Z,11.83
2017-04-21T10:55:06.853Z,11.17
2017-04-21T10:56:06.868Z,12.23
2017-04-21T10:57:06.609Z,11.65
2017-04-21T10:58:06.435Z,11.98
2017-04-21T10:59:06.419Z,12.12
2017-04-21T11:00:06.884Z,11.58
2017-04-21T11:01:06.853Z,12.42
2017-04-21T11:02:06.827Z,12.33
2017-04-21T11:03:06.900Z,12.32
2017-04-21T11:04:06.852Z,12.38
2017-04-21T11:05:07.993Z,12.42
2017-04-21T11:06:08.025Z,13.32
2017-04-21T11:07:08.034Z,12.17
2017-04-21T11:08:08.056Z,12.98
2017-04-21T11:09:08.029Z,11.92
2017-04-21T11:10:08.225Z,11.95
2017-04-21T11:11:08.918Z,11.90
2017-04-21T11:12:08.966Z,11.37
2017-04-21T11:13:08.982Z,11.83
2017-04-21T11:14:09.002Z,12.85
2017-04-21T11:15:09.419Z,11.68
2017-04-21T11:16:09.575Z,12.87
2017-04-21T11:17:10.106Z,12.55
2017-04-21T11:18:10.056Z,10.75
2017-04-21T11:19:10.013Z,11.67
2017-04-21T11:20:11.122Z,13.10
2017-04-21T11:21:11.228Z,14.52
2017-04-21T11:22:11.225Z,12.25
2017-04-21T11:23:11.995Z,11.90
2017-04-21T11:24:11.994Z,12.25
2017-04-21T11:25:12.375Z,13.35
2017-04-21T11:26:12.454Z,11.62
2017-04-21T11:27:12.452Z,12.97
2017-04-21T11:28:12.395Z,11.45
2017-04-21T11:29:12.461Z,14.10
2017-04-21T11:30:12.822Z,12.25
2017-04-21T11:31:12.877Z,13.02
2017-04-21T11:32:13.023Z,12.25
2017-04-21T11:33:13.089Z,12.43
2017-04-21T11:34:13.084Z,11.53
2017-04-21T11:35:13.431Z,11.97
2017-04-21T11:36:13.404Z,12.48
2017-04-21T11:37:13.376Z,12.80
2017-04-21T11:38:13.391Z,11.20
2017-04-21T11:39:13.417Z,13.33
2017-04-21T11:40:14.558Z,12.97
2017-04-21T11:41:14.573Z,11.50
2017-04-21T11:42:14.723Z,13.93
2017-04-21T11:43:14.731Z,13.00
2017-04-21T11:44:14.945Z,13.32
2017-04-21T11:45:15.308Z,12.33
2017-04-21T11:46:15.323Z,13.53
2017-04-21T11:47:15.310Z,13.23
2017-04-21T11:48:16.037Z,12.67
2017-04-21T11:49:16.058Z,13.80
2017-04-21T11:50:16.460Z,12.90
2017-04-21T11:51:16.459Z,13.58
2017-04-21T11:52:16.912Z,12.00
2017-04-21T11:53:16.922Z,12.33
2017-04-21T11:54:16.976Z,13.45
2017-04-21T11:55:17.999Z,12.52
2017-04-21T11:56:17.770Z,12.68
2017-04-21T11:57:17.541Z,13.50
2017-04-21T11:58:17.590Z,13.03
2017-04-21T11:59:17.633Z,12.13
2017-04-21T12:00:18.740Z,12.23
2017-04-21T12:01:18.807Z,13.32
2017-04-21T12:02:19.601Z,13.33
2017-04-21T12:03:19.655Z,12.13
2017-04-21T12:04:19.650Z,13.28
2017-04-21T12:05:19.990Z,12.30
2017-04-21T12:06:20.192Z,12.92
2017-04-21T12:07:20.173Z,12.17
2017-04-21T12:08:20.105Z,12.50
2017-04-21T12:09:20.050Z,13.05
2017-04-21T12:10:20.534Z,14.30
2017-04-21T12:11:21.585Z,12.70
2017-04-21T12:12:21.572Z,13.62
2017-04-21T12:13:21.528Z,15.70
2017-04-21T12:14:21.507Z,12.73
2017-04-21T12:15:21.900Z,12.97
2017-04-21T12:16:21.933Z,14.40
2017-04-21T12:17:22.644Z,12.57
2017-04-21T12:18:22.630Z,12.40
2017-04-21T12:19:22.646Z,13.57
2017-04-21T12:20:23.065Z,13.62
2017-04-21T12:21:23.070Z,13.18
2017-04-21T12:22:23.054Z,13.23
2017-04-21T12:23:23.065Z,13.65
2017-04-21T12:24:23.029Z,12.78
2017-04-21T12:25:23.420Z,13.97
2017-04-21T12:26:24.186Z,12.53
2017-04-21T12:27:24.153Z,12.65
2017-04-21T12:28:24.883Z,13.87
2017-04-21T12:29:25.609Z,13.42
2017-04-21T12:30:25.882Z,14.05
2017-04-21T12:31:25.825Z,12.60
2017-04-21T12:32:25.839Z,13.38
2017-04-21T12:33:25.798Z,12.47
2017-04-21T12:34:25.793Z,12.88
2017-04-21T12:35:26.194Z,12.62
2017-04-21T12:36:26.220Z,12.88
2017-04-21T12:37:26.230Z,12.85
2017-04-21T12:38:26.203Z,13.32
2017-04-21T12:39:26.248Z,12.35
2017-04-21T12:40:26.516Z,11.88
2017-04-21T12:41:26.537Z,13.33
2017-04-21T12:42:26.549Z,12.97
2017-04-21T12:43:26.910Z,13.18
2017-04-21T12:44:27.636Z,12.70
2017-04-21T12:45:28.040Z,13.05
2017-04-21T12:46:28.809Z,12.98
2017-04-21T12:47:28.901Z,11.97
2017-04-21T12:48:29.158Z,13.35
2017-04-21T12:49:28.843Z,13.93
2017-04-21T12:50:29.000Z,14.03
2017-04-21T12:51:29.026Z,12.43
2017-04-21T12:52:28.956Z,12.12
2017-04-21T12:53:29.554Z,13.07
2017-04-21T12:54:29.561Z,12.85
2017-04-21T12:55:29.947Z,13.13
2017-04-21T12:56:29.759Z,12.60
2017-04-21T12:57:29.566Z,13.37
2017-04-21T12:58:29.575Z,13.08
2017-04-21T12:59:29.572Z,13.10
2017-04-21T13:00:29.875Z,13.02
2017-04-21T13:01:29.919Z,12.22
2017-04-21T13:02:29.790Z,12.92